sensor_id;sensor_type;location;lat;lon;timestamp;P1;durP1;ratioP1;P2;durP2;ratioP2
10605;SDS011;5350;42.698;23.148;2023-06-24T00:01:32;15.60;;;13.93;;
10605;SDS011;5350;42.698;23.148;2023-06-24T00:04:00;17.23;;;14.60;;
10605;SDS011;5350;42.698;23.148;2023-06-24T00:06:26;12.80;;;11.50;;
10605;SDS011;5350;42.698;23.148;2023-06-24T00:08:54;13.60;;;12.20;;
10605;SDS011;5350;42.698;23.148;2023-06-24T00:11:26;17.98;;;14.93;;
10605;SDS011;5350;42.698;23.148;2023-06-24T00:13:54;22.90;;;14.85;;
10605;SDS011;5350;42.698;23.148;2023-06-24T00:16:21;16.73;;;15.02;;
10605;SDS011;5350;42.698;23.148;2023-06-24T00:18:52;19.45;;;14.65;;
10605;SDS011;5350;42.698;23.148;2023-06-24T00:21:19;17.08;;;15.43;;
10605;SDS011;5350;42.698;23.148;2023-06-24T00:23:47;17.23;;;13.93;;
10605;SDS011;5350;42.698;23.148;2023-06-24T00:26:16;15.27;;;13.85;;
10605;SDS011;5350;42.698;23.148;2023-06-24T00:28:43;15.55;;;13.82;;
10605;SDS011;5350;42.698;23.148;2023-06-24T00:31:09;14.55;;;13.23;;
10605;SDS011;5350;42.698;23.148;2023-06-24T00:33:36;15.80;;;14.20;;
10605;SDS011;5350;42.698;23.148;2023-06-24T00:36:03;16.33;;;14.60;;
10605;SDS011;5350;42.698;23.148;2023-06-24T00:38:31;15.75;;;14.25;;
10605;SDS011;5350;42.698;23.148;2023-06-24T00:40:58;21.65;;;14.98;;
10605;SDS011;5350;42.698;23.148;2023-06-24T00:43:26;16.40;;;14.77;;
10605;SDS011;5350;42.698;23.148;2023-06-24T00:45:54;15.98;;;14.38;;
10605;SDS011;5350;42.698;23.148;2023-06-24T00:48:21;16.92;;;15.32;;
10605;SDS011;5350;42.698;23.148;2023-06-24T00:50:49;17.83;;;16.00;;
10605;SDS011;5350;42.698;23.148;2023-06-24T00:53:16;17.17;;;15.52;;
10605;SDS011;5350;42.698;23.148;2023-06-24T00:55:43;17.25;;;14.88;;
10605;SDS011;5350;42.698;23.148;2023-06-24T00:58:11;16.98;;;15.18;;
10605;SDS011;5350;42.698;23.148;2023-06-24T01:00:42;16.35;;;14.63;;
10605;SDS011;5350;42.698;23.148;2023-06-24T01:03:11;15.45;;;13.00;;
10605;SDS011;5350;42.698;23.148;2023-06-24T01:05:39;16.75;;;13.93;;
10605;SDS011;5350;42.698;23.148;2023-06-24T01:08:07;17.10;;;15.27;;
10605;SDS011;5350;42.698;23.148;2023-06-24T01:10:35;16.63;;;14.90;;
10605;SDS011;5350;42.698;23.148;2023-06-24T01:13:02;16.85;;;15.02;;
10605;SDS011;5350;42.698;23.148;2023-06-24T01:15:28;17.58;;;15.18;;
10605;SDS011;5350;42.698;23.148;2023-06-24T01:17:58;18.48;;;14.95;;
10605;SDS011;5350;42.698;23.148;2023-06-24T01:20:34;16.17;;;14.32;;
10605;SDS011;5350;42.698;23.148;2023-06-24T01:26:19;17.00;;;15.15;;
10605;SDS011;5350;42.698;23.148;2023-06-24T01:31:51;14.82;;;13.43;;
10605;SDS011;5350;42.698;23.148;2023-06-24T01:34:24;15.95;;;14.45;;
10605;SDS011;5350;42.698;23.148;2023-06-24T01:37:01;16.75;;;15.00;;
10605;SDS011;5350;42.698;23.148;2023-06-24T01:39:36;17.10;;;14.77;;
10605;SDS011;5350;42.698;23.148;2023-06-24T01:42:10;18.30;;;15.32;;
10605;SDS011;5350;42.698;23.148;2023-06-24T01:44:39;16.60;;;14.82;;
10605;SDS011;5350;42.698;23.148;2023-06-24T01:47:11;16.33;;;14.55;;
10605;SDS011;5350;42.698;23.148;2023-06-24T01:49:41;16.17;;;14.57;;
10605;SDS011;5350;42.698;23.148;2023-06-24T01:52:10;16.70;;;15.00;;
10605;SDS011;5350;42.698;23.148;2023-06-24T01:54:38;15.73;;;13.93;;
10605;SDS011;5350;42.698;23.148;2023-06-24T01:57:06;16.25;;;14.63;;
10605;SDS011;5350;42.698;23.148;2023-06-24T01:59:36;16.13;;;14.43;;
10605;SDS011;5350;42.698;23.148;2023-06-24T02:02:06;16.13;;;14.23;;
10605;SDS011;5350;42.698;23.148;2023-06-24T02:04:35;15.82;;;13.10;;
10605;SDS011;5350;42.698;23.148;2023-06-24T02:07:04;14.85;;;13.32;;
10605;SDS011;5350;42.698;23.148;2023-06-24T02:09:32;14.75;;;13.18;;
10605;SDS011;5350;42.698;23.148;2023-06-24T02:12:00;14.60;;;13.20;;
10605;SDS011;5350;42.698;23.148;2023-06-24T02:14:29;13.48;;;12.07;;
10605;SDS011;5350;42.698;23.148;2023-06-24T02:16:57;18.35;;;13.60;;
10605;SDS011;5350;42.698;23.148;2023-06-24T02:19:27;14.63;;;13.18;;
10605;SDS011;5350;42.698;23.148;2023-06-24T02:21:58;16.35;;;13.10;;
10605;SDS011;5350;42.698;23.148;2023-06-24T02:24:27;16.70;;;13.45;;
10605;SDS011;5350;42.698;23.148;2023-06-24T02:26:55;14.65;;;13.25;;
10605;SDS011;5350;42.698;23.148;2023-06-24T02:29:24;13.82;;;12.63;;
10605;SDS011;5350;42.698;23.148;2023-06-24T02:31:52;12.77;;;11.57;;
10605;SDS011;5350;42.698;23.148;2023-06-24T02:34:19;14.38;;;13.07;;
10605;SDS011;5350;42.698;23.148;2023-06-24T02:36:46;13.80;;;12.50;;
10605;SDS011;5350;42.698;23.148;2023-06-24T02:39:14;13.35;;;12.18;;
10605;SDS011;5350;42.698;23.148;2023-06-24T02:41:41;14.32;;;12.93;;
10605;SDS011;5350;42.698;23.148;2023-06-24T02:44:09;15.68;;;13.65;;
10605;SDS011;5350;42.698;23.148;2023-06-24T02:46:36;14.57;;;12.65;;
10605;SDS011;5350;42.698;23.148;2023-06-24T02:49:04;15.43;;;13.15;;
10605;SDS011;5350;42.698;23.148;2023-06-24T02:51:31;14.23;;;12.73;;
10605;SDS011;5350;42.698;23.148;2023-06-24T02:53:58;14.60;;;13.15;;
10605;SDS011;5350;42.698;23.148;2023-06-24T02:56:27;13.65;;;12.25;;
10605;SDS011;5350;42.698;23.148;2023-06-24T02:58:54;13.63;;;12.35;;
10605;SDS011;5350;42.698;23.148;2023-06-24T03:01:21;15.40;;;12.50;;
10605;SDS011;5350;42.698;23.148;2023-06-24T03:03:51;14.38;;;13.07;;
10605;SDS011;5350;42.698;23.148;2023-06-24T03:06:19;14.27;;;12.80;;
10605;SDS011;5350;42.698;23.148;2023-06-24T03:08:47;14.65;;;12.68;;
10605;SDS011;5350;42.698;23.148;2023-06-24T03:11:14;13.65;;;11.68;;
10605;SDS011;5350;42.698;23.148;2023-06-24T03:13:42;13.00;;;11.70;;
10605;SDS011;5350;42.698;23.148;2023-06-24T03:16:10;13.80;;;12.00;;
10605;SDS011;5350;42.698;23.148;2023-06-24T03:18:39;14.73;;;13.15;;
10605;SDS011;5350;42.698;23.148;2023-06-24T03:21:06;14.48;;;13.05;;
10605;SDS011;5350;42.698;23.148;2023-06-24T03:23:33;16.13;;;13.75;;
10605;SDS011;5350;42.698;23.148;2023-06-24T03:26:00;15.27;;;13.68;;
10605;SDS011;5350;42.698;23.148;2023-06-24T03:28:28;17.65;;;14.30;;
10605;SDS011;5350;42.698;23.148;2023-06-24T03:30:56;18.50;;;13.88;;
10605;SDS011;5350;42.698;23.148;2023-06-24T03:33:23;15.20;;;13.70;;
10605;SDS011;5350;42.698;23.148;2023-06-24T03:35:51;15.50;;;13.75;;
10605;SDS011;5350;42.698;23.148;2023-06-24T03:38:18;15.25;;;13.73;;
10605;SDS011;5350;42.698;23.148;2023-06-24T03:40:45;15.32;;;13.73;;
10605;SDS011;5350;42.698;23.148;2023-06-24T03:43:12;14.50;;;12.70;;
10605;SDS011;5350;42.698;23.148;2023-06-24T03:45:39;15.35;;;13.82;;
10605;SDS011;5350;42.698;23.148;2023-06-24T03:48:07;15.15;;;13.45;;
10605;SDS011;5350;42.698;23.148;2023-06-24T03:50:33;15.85;;;13.63;;
10605;SDS011;5350;42.698;23.148;2023-06-24T03:53:00;14.38;;;13.05;;
10605;SDS011;5350;42.698;23.148;2023-06-24T03:55:28;13.20;;;12.00;;
10605;SDS011;5350;42.698;23.148;2023-06-24T03:57:55;18.30;;;12.90;;
10605;SDS011;5350;42.698;23.148;2023-06-24T04:00:21;13.90;;;12.60;;
10605;SDS011;5350;42.698;23.148;2023-06-24T04:02:48;13.70;;;12.40;;
10605;SDS011;5350;42.698;23.148;2023-06-24T04:05:16;13.80;;;12.45;;
10605;SDS011;5350;42.698;23.148;2023-06-24T04:07:43;16.83;;;12.90;;
10605;SDS011;5350;42.698;23.148;2023-06-24T04:10:12;19.67;;;12.77;;
10605;SDS011;5350;42.698;23.148;2023-06-24T04:12:39;14.65;;;13.15;;
10605;SDS011;5350;42.698;23.148;2023-06-24T04:15:06;12.75;;;11.45;;
10605;SDS011;5350;42.698;23.148;2023-06-24T04:17:34;14.65;;;13.25;;
10605;SDS011;5350;42.698;23.148;2023-06-24T04:20:00;14.32;;;12.80;;
10605;SDS011;5350;42.698;23.148;2023-06-24T04:22:30;13.43;;;12.05;;
10605;SDS011;5350;42.698;23.148;2023-06-24T04:24:57;15.07;;;12.90;;
10605;SDS011;5350;42.698;23.148;2023-06-24T04:27:23;13.50;;;12.15;;
10605;SDS011;5350;42.698;23.148;2023-06-24T04:29:50;13.90;;;12.68;;
10605;SDS011;5350;42.698;23.148;2023-06-24T04:32:17;15.23;;;13.68;;
10605;SDS011;5350;42.698;23.148;2023-06-24T04:34:44;15.05;;;13.55;;
10605;SDS011;5350;42.698;23.148;2023-06-24T04:37:10;14.75;;;13.35;;
10605;SDS011;5350;42.698;23.148;2023-06-24T04:39:38;14.85;;;13.35;;
10605;SDS011;5350;42.698;23.148;2023-06-24T04:42:05;14.35;;;12.95;;
10605;SDS011;5350;42.698;23.148;2023-06-24T04:44:32;15.15;;;13.00;;
10605;SDS011;5350;42.698;23.148;2023-06-24T04:46:58;14.15;;;12.82;;
10605;SDS011;5350;42.698;23.148;2023-06-24T04:49:25;14.23;;;12.88;;
10605;SDS011;5350;42.698;23.148;2023-06-24T04:51:52;15.30;;;13.90;;
10605;SDS011;5350;42.698;23.148;2023-06-24T04:54:19;14.82;;;13.45;;
10605;SDS011;5350;42.698;23.148;2023-06-24T04:56:47;14.40;;;12.90;;
10605;SDS011;5350;42.698;23.148;2023-06-24T04:59:15;14.98;;;13.52;;
10605;SDS011;5350;42.698;23.148;2023-06-24T05:01:42;15.18;;;13.60;;
10605;SDS011;5350;42.698;23.148;2023-06-24T05:04:09;16.00;;;14.15;;
10605;SDS011;5350;42.698;23.148;2023-06-24T05:06:36;15.27;;;13.00;;
10605;SDS011;5350;42.698;23.148;2023-06-24T05:09:02;14.45;;;12.95;;
10605;SDS011;5350;42.698;23.148;2023-06-24T05:11:29;14.50;;;13.15;;
10605;SDS011;5350;42.698;23.148;2023-06-24T05:13:57;14.38;;;13.15;;
10605;SDS011;5350;42.698;23.148;2023-06-24T05:16:24;15.60;;;13.98;;
10605;SDS011;5350;42.698;23.148;2023-06-24T05:18:51;15.35;;;13.68;;
10605;SDS011;5350;42.698;23.148;2023-06-24T05:21:17;15.38;;;13.68;;
10605;SDS011;5350;42.698;23.148;2023-06-24T05:23:44;15.25;;;13.70;;
10605;SDS011;5350;42.698;23.148;2023-06-24T05:26:11;14.95;;;13.60;;
10605;SDS011;5350;42.698;23.148;2023-06-24T05:28:37;14.07;;;12.75;;
10605;SDS011;5350;42.698;23.148;2023-06-24T05:31:05;13.57;;;12.30;;
10605;SDS011;5350;42.698;23.148;2023-06-24T05:33:32;15.25;;;13.32;;
10605;SDS011;5350;42.698;23.148;2023-06-24T05:35:59;14.70;;;13.35;;
10605;SDS011;5350;42.698;23.148;2023-06-24T05:38:26;14.30;;;12.90;;
10605;SDS011;5350;42.698;23.148;2023-06-24T05:40:52;14.73;;;13.30;;
10605;SDS011;5350;42.698;23.148;2023-06-24T05:43:19;15.93;;;13.75;;
10605;SDS011;5350;42.698;23.148;2023-06-24T05:45:46;15.68;;;14.07;;
10605;SDS011;5350;42.698;23.148;2023-06-24T05:48:14;15.13;;;13.73;;
10605;SDS011;5350;42.698;23.148;2023-06-24T05:50:40;15.52;;;14.10;;
10605;SDS011;5350;42.698;23.148;2023-06-24T05:53:07;19.50;;;13.93;;
10605;SDS011;5350;42.698;23.148;2023-06-24T05:55:34;15.38;;;13.73;;
10605;SDS011;5350;42.698;23.148;2023-06-24T05:58:00;15.25;;;13.55;;
10605;SDS011;5350;42.698;23.148;2023-06-24T06:00:27;15.57;;;13.90;;
10605;SDS011;5350;42.698;23.148;2023-06-24T06:02:54;14.60;;;13.20;;
10605;SDS011;5350;42.698;23.148;2023-06-24T06:05:22;15.15;;;13.10;;
10605;SDS011;5350;42.698;23.148;2023-06-24T06:07:48;15.55;;;13.95;;
10605;SDS011;5350;42.698;23.148;2023-06-24T06:10:15;14.82;;;13.32;;
10605;SDS011;5350;42.698;23.148;2023-06-24T06:12:43;15.35;;;13.98;;
10605;SDS011;5350;42.698;23.148;2023-06-24T06:15:10;15.68;;;14.27;;
10605;SDS011;5350;42.698;23.148;2023-06-24T06:17:36;15.93;;;14.48;;
10605;SDS011;5350;42.698;23.148;2023-06-24T06:20:04;16.33;;;14.73;;
10605;SDS011;5350;42.698;23.148;2023-06-24T06:22:32;15.95;;;14.50;;
10605;SDS011;5350;42.698;23.148;2023-06-24T06:25:03;16.13;;;14.52;;
10605;SDS011;5350;42.698;23.148;2023-06-24T06:27:30;16.02;;;14.40;;
10605;SDS011;5350;42.698;23.148;2023-06-24T06:29:56;16.55;;;14.93;;
10605;SDS011;5350;42.698;23.148;2023-06-24T06:32:23;16.33;;;14.73;;
10605;SDS011;5350;42.698;23.148;2023-06-24T06:34:50;16.27;;;14.70;;
10605;SDS011;5350;42.698;23.148;2023-06-24T06:37:16;17.00;;;15.32;;
10605;SDS011;5350;42.698;23.148;2023-06-24T06:39:44;17.52;;;15.82;;
10605;SDS011;5350;42.698;23.148;2023-06-24T06:42:11;16.33;;;14.55;;
10605;SDS011;5350;42.698;23.148;2023-06-24T06:44:39;18.05;;;16.35;;
10605;SDS011;5350;42.698;23.148;2023-06-24T06:47:06;19.60;;;15.32;;
10605;SDS011;5350;42.698;23.148;2023-06-24T06:49:33;17.20;;;15.50;;
10605;SDS011;5350;42.698;23.148;2023-06-24T06:52:00;16.17;;;14.35;;
10605;SDS011;5350;42.698;23.148;2023-06-24T06:54:27;17.15;;;14.50;;
10605;SDS011;5350;42.698;23.148;2023-06-24T06:56:55;15.90;;;14.40;;
10605;SDS011;5350;42.698;23.148;2023-06-24T06:59:25;17.00;;;15.10;;
10605;SDS011;5350;42.698;23.148;2023-06-24T07:01:52;19.30;;;15.02;;
10605;SDS011;5350;42.698;23.148;2023-06-24T07:04:19;18.08;;;16.17;;
10605;SDS011;5350;42.698;23.148;2023-06-24T07:06:45;17.25;;;14.77;;
10605;SDS011;5350;42.698;23.148;2023-06-24T07:09:12;17.67;;;15.82;;
10605;SDS011;5350;42.698;23.148;2023-06-24T07:11:40;18.40;;;16.70;;
10605;SDS011;5350;42.698;23.148;2023-06-24T07:14:08;17.52;;;15.48;;
10605;SDS011;5350;42.698;23.148;2023-06-24T07:16:35;25.17;;;16.63;;
10605;SDS011;5350;42.698;23.148;2023-06-24T07:19:02;20.65;;;16.80;;
10605;SDS011;5350;42.698;23.148;2023-06-24T07:21:28;18.95;;;17.15;;
10605;SDS011;5350;42.698;23.148;2023-06-24T07:23:55;18.77;;;16.77;;
10605;SDS011;5350;42.698;23.148;2023-06-24T07:26:22;18.83;;;16.85;;
10605;SDS011;5350;42.698;23.148;2023-06-24T07:28:48;19.88;;;17.73;;
10605;SDS011;5350;42.698;23.148;2023-06-24T07:31:16;20.63;;;17.98;;
10605;SDS011;5350;42.698;23.148;2023-06-24T07:33:43;21.88;;;17.67;;
10605;SDS011;5350;42.698;23.148;2023-06-24T07:36:10;19.85;;;16.92;;
10605;SDS011;5350;42.698;23.148;2023-06-24T07:38:38;20.23;;;18.10;;
10605;SDS011;5350;42.698;23.148;2023-06-24T07:41:05;20.10;;;18.20;;
10605;SDS011;5350;42.698;23.148;2023-06-24T07:43:32;20.52;;;18.50;;
10605;SDS011;5350;42.698;23.148;2023-06-24T07:45:58;23.60;;;17.90;;
10605;SDS011;5350;42.698;23.148;2023-06-24T07:48:26;21.25;;;17.50;;
10605;SDS011;5350;42.698;23.148;2023-06-24T07:50:53;18.73;;;16.92;;
10605;SDS011;5350;42.698;23.148;2023-06-24T07:53:20;18.95;;;17.02;;
10605;SDS011;5350;42.698;23.148;2023-06-24T07:55:46;18.90;;;16.67;;
10605;SDS011;5350;42.698;23.148;2023-06-24T07:58:13;18.15;;;15.80;;
10605;SDS011;5350;42.698;23.148;2023-06-24T08:00:40;19.48;;;16.30;;
10605;SDS011;5350;42.698;23.148;2023-06-24T08:03:06;19.33;;;16.52;;
10605;SDS011;5350;42.698;23.148;2023-06-24T08:05:34;18.10;;;15.23;;
10605;SDS011;5350;42.698;23.148;2023-06-24T08:08:01;18.70;;;16.70;;
10605;SDS011;5350;42.698;23.148;2023-06-24T08:10:28;18.77;;;16.88;;
10605;SDS011;5350;42.698;23.148;2023-06-24T08:12:54;18.00;;;16.35;;
10605;SDS011;5350;42.698;23.148;2023-06-24T08:15:21;20.83;;;17.38;;
10605;SDS011;5350;42.698;23.148;2023-06-24T08:17:50;18.30;;;15.65;;
10605;SDS011;5350;42.698;23.148;2023-06-24T08:20:17;18.23;;;16.20;;
10605;SDS011;5350;42.698;23.148;2023-06-24T08:22:47;16.23;;;14.40;;
10605;SDS011;5350;42.698;23.148;2023-06-24T08:25:14;22.65;;;15.57;;
10605;SDS011;5350;42.698;23.148;2023-06-24T08:27:41;22.73;;;17.58;;
10605;SDS011;5350;42.698;23.148;2023-06-24T08:30:08;19.00;;;16.13;;
10605;SDS011;5350;42.698;23.148;2023-06-24T08:32:36;17.70;;;15.95;;
10605;SDS011;5350;42.698;23.148;2023-06-24T08:35:03;17.70;;;15.85;;
10605;SDS011;5350;42.698;23.148;2023-06-24T08:37:30;16.33;;;14.80;;
10605;SDS011;5350;42.698;23.148;2023-06-24T08:39:58;17.02;;;15.40;;
10605;SDS011;5350;42.698;23.148;2023-06-24T08:42:24;17.92;;;16.10;;
10605;SDS011;5350;42.698;23.148;2023-06-24T08:44:51;17.77;;;16.08;;
10605;SDS011;5350;42.698;23.148;2023-06-24T08:47:18;18.08;;;16.38;;
10605;SDS011;5350;42.698;23.148;2023-06-24T08:49:46;18.48;;;16.77;;
10605;SDS011;5350;42.698;23.148;2023-06-24T08:52:15;18.00;;;16.20;;
10605;SDS011;5350;42.698;23.148;2023-06-24T08:54:44;18.60;;;16.15;;
10605;SDS011;5350;42.698;23.148;2023-06-24T08:57:15;18.67;;;16.85;;
10605;SDS011;5350;42.698;23.148;2023-06-24T08:59:42;16.15;;;14.45;;
10605;SDS011;5350;42.698;23.148;2023-06-24T09:02:08;16.40;;;14.90;;
10605;SDS011;5350;42.698;23.148;2023-06-24T09:04:36;17.00;;;15.27;;
10605;SDS011;5350;42.698;23.148;2023-06-24T09:07:03;17.98;;;15.38;;
10605;SDS011;5350;42.698;23.148;2023-06-24T09:09:30;18.73;;;14.30;;
10605;SDS011;5350;42.698;23.148;2023-06-24T09:11:57;16.58;;;14.05;;
10605;SDS011;5350;42.698;23.148;2023-06-24T09:14:27;18.38;;;14.73;;
10605;SDS011;5350;42.698;23.148;2023-06-24T09:16:57;16.33;;;14.70;;
10605;SDS011;5350;42.698;23.148;2023-06-24T09:19:26;16.17;;;14.48;;
10605;SDS011;5350;42.698;23.148;2023-06-24T09:21:54;15.95;;;14.40;;
10605;SDS011;5350;42.698;23.148;2023-06-24T09:24:26;18.10;;;14.18;;
10605;SDS011;5350;42.698;23.148;2023-06-24T09:26:53;18.65;;;14.70;;
10605;SDS011;5350;42.698;23.148;2023-06-24T09:29:24;15.18;;;13.68;;
10605;SDS011;5350;42.698;23.148;2023-06-24T09:31:53;16.80;;;14.63;;
10605;SDS011;5350;42.698;23.148;2023-06-24T09:34:21;14.90;;;13.45;;
10605;SDS011;5350;42.698;23.148;2023-06-24T09:36:51;16.98;;;15.38;;
10605;SDS011;5350;42.698;23.148;2023-06-24T09:39:18;15.55;;;14.05;;
10605;SDS011;5350;42.698;23.148;2023-06-24T09:41:48;15.40;;;13.88;;
10605;SDS011;5350;42.698;23.148;2023-06-24T09:44:15;14.18;;;12.75;;
10605;SDS011;5350;42.698;23.148;2023-06-24T09:46:45;18.63;;;13.70;;
10605;SDS011;5350;42.698;23.148;2023-06-24T09:49:13;15.38;;;14.02;;
10605;SDS011;5350;42.698;23.148;2023-06-24T09:51:40;15.20;;;13.85;;
10605;SDS011;5350;42.698;23.148;2023-06-24T09:54:10;14.60;;;13.20;;
10605;SDS011;5350;42.698;23.148;2023-06-24T09:56:39;13.57;;;12.38;;
10605;SDS011;5350;42.698;23.148;2023-06-24T09:59:09;14.57;;;13.18;;
10605;SDS011;5350;42.698;23.148;2023-06-24T10:01:38;15.18;;;13.63;;
10605;SDS011;5350;42.698;23.148;2023-06-24T10:04:08;15.40;;;13.90;;
10605;SDS011;5350;42.698;23.148;2023-06-24T10:06:36;14.40;;;12.75;;
10605;SDS011;5350;42.698;23.148;2023-06-24T10:09:04;14.13;;;12.68;;
10605;SDS011;5350;42.698;23.148;2023-06-24T10:11:30;14.50;;;12.98;;
10605;SDS011;5350;42.698;23.148;2023-06-24T10:13:57;14.75;;;13.05;;
10605;SDS011;5350;42.698;23.148;2023-06-24T10:16:24;14.35;;;12.65;;
10605;SDS011;5350;42.698;23.148;2023-06-24T10:18:51;14.07;;;12.52;;
10605;SDS011;5350;42.698;23.148;2023-06-24T10:21:19;17.63;;;12.45;;
10605;SDS011;5350;42.698;23.148;2023-06-24T10:23:51;15.77;;;12.07;;
10605;SDS011;5350;42.698;23.148;2023-06-24T10:26:22;14.63;;;12.30;;
10605;SDS011;5350;42.698;23.148;2023-06-24T10:29:10;15.80;;;12.70;;
10605;SDS011;5350;42.698;23.148;2023-06-24T10:31:52;13.95;;;12.88;;
10605;SDS011;5350;42.698;23.148;2023-06-24T10:37:18;13.70;;;11.60;;
10605;SDS011;5350;42.698;23.148;2023-06-24T10:39:47;12.00;;;11.00;;
10605;SDS011;5350;42.698;23.148;2023-06-24T10:42:31;14.32;;;11.48;;
10605;SDS011;5350;42.698;23.148;2023-06-24T10:45:02;13.00;;;11.65;;
10605;SDS011;5350;42.698;23.148;2023-06-24T10:47:40;14.35;;;11.48;;
10605;SDS011;5350;42.698;23.148;2023-06-24T10:50:08;12.40;;;11.25;;
10605;SDS011;5350;42.698;23.148;2023-06-24T10:52:40;12.23;;;10.88;;
10605;SDS011;5350;42.698;23.148;2023-06-24T10:55:08;12.10;;;11.00;;
10605;SDS011;5350;42.698;23.148;2023-06-24T10:57:35;12.45;;;11.27;;
10605;SDS011;5350;42.698;23.148;2023-06-24T11:00:02;11.32;;;10.32;;
10605;SDS011;5350;42.698;23.148;2023-06-24T11:02:30;11.15;;;10.25;;
10605;SDS011;5350;42.698;23.148;2023-06-24T11:04:57;11.73;;;10.27;;
10605;SDS011;5350;42.698;23.148;2023-06-24T11:07:25;11.13;;;10.18;;
10605;SDS011;5350;42.698;23.148;2023-06-24T11:09:54;10.65;;;9.65;;
10605;SDS011;5350;42.698;23.148;2023-06-24T11:12:23;10.98;;;9.98;;
10605;SDS011;5350;42.698;23.148;2023-06-24T11:14:51;12.93;;;10.57;;
10605;SDS011;5350;42.698;23.148;2023-06-24T11:17:19;10.07;;;9.18;;
10605;SDS011;5350;42.698;23.148;2023-06-24T11:19:46;11.55;;;10.45;;
10605;SDS011;5350;42.698;23.148;2023-06-24T11:22:12;14.23;;;10.52;;
10605;SDS011;5350;42.698;23.148;2023-06-24T11:24:39;11.63;;;10.43;;
10605;SDS011;5350;42.698;23.148;2023-06-24T11:27:08;11.63;;;9.98;;
10605;SDS011;5350;42.698;23.148;2023-06-24T11:29:34;10.23;;;9.32;;
10605;SDS011;5350;42.698;23.148;2023-06-24T11:32:02;10.57;;;9.52;;
10605;SDS011;5350;42.698;23.148;2023-06-24T11:34:29;26.83;;;10.50;;
10605;SDS011;5350;42.698;23.148;2023-06-24T11:36:56;10.30;;;9.30;;
10605;SDS011;5350;42.698;23.148;2023-06-24T11:39:23;11.23;;;10.13;;
10605;SDS011;5350;42.698;23.148;2023-06-24T11:41:50;12.45;;;9.52;;
10605;SDS011;5350;42.698;23.148;2023-06-24T11:44:19;10.73;;;9.80;;
10605;SDS011;5350;42.698;23.148;2023-06-24T11:46:47;10.85;;;9.85;;
10605;SDS011;5350;42.698;23.148;2023-06-24T11:49:14;10.93;;;10.02;;
10605;SDS011;5350;42.698;23.148;2023-06-24T11:51:49;13.85;;;10.13;;
10605;SDS011;5350;42.698;23.148;2023-06-24T11:54:18;10.23;;;9.35;;
10605;SDS011;5350;42.698;23.148;2023-06-24T11:56:49;10.23;;;9.30;;
10605;SDS011;5350;42.698;23.148;2023-06-24T11:59:17;9.25;;;8.50;;
10605;SDS011;5350;42.698;23.148;2023-06-24T12:01:46;11.07;;;9.45;;
10605;SDS011;5350;42.698;23.148;2023-06-24T12:04:20;9.77;;;8.88;;
10605;SDS011;5350;42.698;23.148;2023-06-24T12:06:47;10.05;;;9.05;;
10605;SDS011;5350;42.698;23.148;2023-06-24T12:09:14;9.80;;;8.70;;
10605;SDS011;5350;42.698;23.148;2023-06-24T12:11:41;10.45;;;9.00;;
10605;SDS011;5350;42.698;23.148;2023-06-24T12:14:08;12.50;;;8.80;;
10605;SDS011;5350;42.698;23.148;2023-06-24T12:16:35;9.30;;;8.55;;
10605;SDS011;5350;42.698;23.148;2023-06-24T12:19:03;10.38;;;9.18;;
10605;SDS011;5350;42.698;23.148;2023-06-24T12:21:30;8.95;;;8.25;;
10605;SDS011;5350;42.698;23.148;2023-06-24T12:23:56;10.77;;;8.55;;
10605;SDS011;5350;42.698;23.148;2023-06-24T12:26:23;9.82;;;8.82;;
10605;SDS011;5350;42.698;23.148;2023-06-24T12:28:50;9.05;;;8.15;;
10605;SDS011;5350;42.698;23.148;2023-06-24T12:31:16;9.13;;;7.82;;
10605;SDS011;5350;42.698;23.148;2023-06-24T12:33:43;9.50;;;8.20;;
10605;SDS011;5350;42.698;23.148;2023-06-24T12:36:11;11.43;;;8.00;;
10605;SDS011;5350;42.698;23.148;2023-06-24T12:38:38;12.90;;;8.18;;
10605;SDS011;5350;42.698;23.148;2023-06-24T12:41:05;8.52;;;7.70;;
10605;SDS011;5350;42.698;23.148;2023-06-24T12:43:32;7.75;;;7.00;;
10605;SDS011;5350;42.698;23.148;2023-06-24T12:45:59;8.77;;;7.85;;
10605;SDS011;5350;42.698;23.148;2023-06-24T12:48:26;10.15;;;8.10;;
10605;SDS011;5350;42.698;23.148;2023-06-24T12:50:52;13.10;;;7.80;;
10605;SDS011;5350;42.698;23.148;2023-06-24T12:53:20;13.05;;;8.02;;
10605;SDS011;5350;42.698;23.148;2023-06-24T12:55:48;13.25;;;7.65;;
10605;SDS011;5350;42.698;23.148;2023-06-24T12:58:18;8.35;;;7.55;;
10605;SDS011;5350;42.698;23.148;2023-06-24T13:00:45;11.35;;;8.65;;
10605;SDS011;5350;42.698;23.148;2023-06-24T13:03:12;16.17;;;11.35;;
10605;SDS011;5350;42.698;23.148;2023-06-24T13:05:39;12.90;;;11.68;;
10605;SDS011;5350;42.698;23.148;2023-06-24T13:08:06;13.07;;;11.82;;
10605;SDS011;5350;42.698;23.148;2023-06-24T13:10:34;14.50;;;12.50;;
10605;SDS011;5350;42.698;23.148;2023-06-24T13:13:00;14.77;;;11.68;;
10605;SDS011;5350;42.698;23.148;2023-06-24T13:15:27;16.23;;;11.52;;
10605;SDS011;5350;42.698;23.148;2023-06-24T13:17:54;15.60;;;11.55;;
10605;SDS011;5350;42.698;23.148;2023-06-24T13:20:21;17.33;;;10.10;;
10605;SDS011;5350;42.698;23.148;2023-06-24T13:22:47;12.63;;;7.68;;
10605;SDS011;5350;42.698;23.148;2023-06-24T13:25:14;12.57;;;8.55;;
10605;SDS011;5350;42.698;23.148;2023-06-24T13:27:42;12.38;;;7.88;;
10605;SDS011;5350;42.698;23.148;2023-06-24T13:30:10;15.40;;;8.30;;
10605;SDS011;5350;42.698;23.148;2023-06-24T13:32:40;11.35;;;7.88;;
10605;SDS011;5350;42.698;23.148;2023-06-24T13:35:07;11.90;;;6.28;;
10605;SDS011;5350;42.698;23.148;2023-06-24T13:37:34;10.85;;;6.15;;
10605;SDS011;5350;42.698;23.148;2023-06-24T13:40:01;11.07;;;6.38;;
10605;SDS011;5350;42.698;23.148;2023-06-24T13:42:28;8.30;;;5.70;;
10605;SDS011;5350;42.698;23.148;2023-06-24T13:44:56;11.25;;;5.60;;
10605;SDS011;5350;42.698;23.148;2023-06-24T13:47:23;8.85;;;6.00;;
10605;SDS011;5350;42.698;23.148;2023-06-24T13:49:49;10.18;;;6.43;;
10605;SDS011;5350;42.698;23.148;2023-06-24T13:52:16;9.43;;;6.18;;
10605;SDS011;5350;42.698;23.148;2023-06-24T13:54:43;15.35;;;6.80;;
10605;SDS011;5350;42.698;23.148;2023-06-24T13:57:11;7.88;;;6.75;;
10605;SDS011;5350;42.698;23.148;2023-06-24T13:59:38;14.18;;;6.95;;
10605;SDS011;5350;42.698;23.148;2023-06-24T14:02:07;15.20;;;6.78;;
10605;SDS011;5350;42.698;23.148;2023-06-24T14:04:34;13.07;;;7.05;;
10605;SDS011;5350;42.698;23.148;2023-06-24T14:07:01;16.50;;;7.45;;
10605;SDS011;5350;42.698;23.148;2023-06-24T14:09:30;14.38;;;6.53;;
10605;SDS011;5350;42.698;23.148;2023-06-24T14:11:57;17.05;;;6.70;;
10605;SDS011;5350;42.698;23.148;2023-06-24T14:14:24;13.15;;;7.60;;
10605;SDS011;5350;42.698;23.148;2023-06-24T14:16:51;13.20;;;6.53;;
10605;SDS011;5350;42.698;23.148;2023-06-24T14:19:19;11.07;;;6.75;;
10605;SDS011;5350;42.698;23.148;2023-06-24T14:21:46;16.23;;;7.45;;
10605;SDS011;5350;42.698;23.148;2023-06-24T14:24:13;14.85;;;7.20;;
10605;SDS011;5350;42.698;23.148;2023-06-24T14:26:39;13.15;;;7.13;;
10605;SDS011;5350;42.698;23.148;2023-06-24T14:29:06;11.57;;;7.28;;
10605;SDS011;5350;42.698;23.148;2023-06-24T14:31:33;15.10;;;7.28;;
10605;SDS011;5350;42.698;23.148;2023-06-24T14:33:59;11.40;;;7.03;;
10605;SDS011;5350;42.698;23.148;2023-06-24T14:36:28;11.40;;;6.90;;
10605;SDS011;5350;42.698;23.148;2023-06-24T14:38:54;12.00;;;6.43;;